Time;durP1;ratioP1;P1;durP2;ratioP2;P2;SDS_P1;SDS_P2;PMS_P1;PMS_P2;Temp;Humidity;BMP_temperature;BMP_pressure;BME280_temperature;BME280_humidity;BME280_pressure;Samples;Min_cycle;Max_cycle;Signal;HPM_P1;HPM_P2
2022/09/13 00:02:04;;;;;;;;;;;;;;;59.15;8.25;100809.56;5111022;27;19924;-61
2022/09/13 00:04:30;;;;;;;;;;;;;;;57.56;9.25;100812.72;5088812;28;19927;-60
2022/09/13 00:06:56;;;;;;;;;;;;;;;58.07;8.49;100817.25;5104637;28;20041;-61
2022/09/13 00:09:23;;;;;;;;;;;;;;;58.31;9.26;100809.75;5102376;28;19915;-61
2022/09/13 00:11:50;;;;;;;;;;;;;;;53.46;11.03;100814.06;5107107;28;19926;-60
2022/09/13 00:14:16;;;;;;;;;;;;;;;54.82;10.28;100810.75;5093879;28;19916;-62
2022/09/13 00:16:43;;;;;;;;;;;;;;;56.47;10.15;100820.97;5105959;28;19930;-60
2022/09/13 00:19:09;;;;;;;;;;;;;;;56.98;9.60;100814.78;5112628;28;19926;-62
2022/09/13 00:21:35;;;;;;;;;;;;;;;56.58;10.52;100808.91;5110273;28;19924;-61
2022/09/13 00:24:01;;;;;;;;;;;;;;;56.61;10.17;100810.63;5093803;28;20379;-61
2022/09/13 00:26:28;;;;;;;;;;;;;;;56.44;9.66;100813.38;5106361;28;19920;-60
2022/09/13 00:28:55;;;;;;;;;;;;;;;56.25;10.55;100817.50;5102437;28;19976;-61
2022/09/13 00:31:24;;;;;;;;;;;;;;;56.51;10.61;100807.53;5106927;28;19920;-61
2022/09/13 00:33:50;;;;;;;;;;;;;;;56.18;10.74;100814.56;5107051;28;19927;-60
2022/09/13 00:36:16;;;;;;;;;;;;;;;53.79;11.00;100818.31;5088283;27;19946;-60
2022/09/13 00:38:43;;;;;;;;;;;;;;;52.92;13.54;100815.53;5108156;28;19980;-60
2022/09/13 00:41:14;;;;;;;;;;;;;;;54.55;11.78;100816.00;5109195;28;20072;-61
2022/09/13 00:43:52;;;;;;;;;;;;;;;55.50;11.65;100809.47;5110266;27;19924;-61
2022/09/13 00:46:24;;;;;;;;;;;;;;;55.69;11.77;100813.59;5103896;28;20434;-61
2022/09/13 00:48:54;;;;;;;;;;;;;;;53.68;12.83;100820.13;5102560;28;19981;-60
2022/09/13 00:51:21;;;;;;;;;;;;;;;53.59;12.74;100823.53;5109449;27;20036;-61
2022/09/13 00:53:50;;;;;;;;;;;;;;;53.28;12.62;100822.38;5107503;28;19920;-60
2022/09/13 00:56:23;;;;;;;;;;;;;;;53.79;12.10;100810.38;5108135;28;20346;-61
2022/09/13 00:59:16;;;;;;;;;;;;;;;53.59;12.49;100819.84;5091281;28;19927;-61
2022/09/13 01:01:51;;;;;;;;;;;;;;;52.31;13.27;100820.41;5100385;28;20064;-60
2022/09/13 01:04:20;;;;;;;;;;;;;;;51.94;14.12;100819.22;5107744;28;19919;-60
2022/09/13 01:06:47;;;;;;;;;;;;;;;51.14;14.21;100818.03;5110533;28;19975;-61
2022/09/13 01:09:14;;;;;;;;;;;;;;;50.32;14.97;100819.22;5108904;28;20379;-59
2022/09/13 01:12:03;;;;;;;;;;;;;;;50.71;14.52;100820.94;5105821;28;19931;-60
2022/09/13 01:14:32;;;;;;;;;;;;;;;51.99;14.28;100815.44;5103630;28;20377;-60
2022/09/13 01:16:58;;;;;;;;;;;;;;;51.12;14.17;100817.00;5106500;28;19920;-59
2022/09/13 01:19:24;;;;;;;;;;;;;;;50.86;14.82;100821.28;5104365;28;19923;-60
2022/09/13 01:22:09;;;;;;;;;;;;;;;51.86;13.69;100821.19;5106971;28;19920;-60
2022/09/13 01:24:53;;;;;;;;;;;;;;;50.70;15.28;100825.16;5106054;28;19919;-61
2022/09/13 01:27:23;;;;;;;;;;;;;;;50.66;14.74;100821.78;5099519;28;19927;-60
2022/09/13 01:30:07;;;;;;;;;;;;;;;50.29;15.77;100822.41;5103146;28;19942;-61
2022/09/13 01:32:42;;;;;;;;;;;;;;;49.39;16.75;100817.31;5102217;28;20428;-60
2022/09/13 01:35:09;;;;;;;;;;;;;;;49.93;15.82;100827.47;5101056;28;20297;-59
2022/09/13 01:37:46;;;;;;;;;;;;;;;48.72;16.36;100826.25;5103225;28;19923;-60
2022/09/13 01:40:13;;;;;;;;;;;;;;;50.13;15.36;100824.16;5102775;28;19942;-61
2022/09/13 01:42:51;;;;;;;;;;;;;;;50.76;14.40;100817.97;5102353;28;19916;-61
2022/09/13 01:45:17;;;;;;;;;;;;;;;49.28;15.06;100831.78;5105460;28;19920;-61
2022/09/13 01:47:50;;;;;;;;;;;;;;;48.57;15.44;100835.19;5106164;28;19920;-61
2022/09/13 01:50:24;;;;;;;;;;;;;;;49.75;14.48;100823.94;5088001;28;19920;-61
2022/09/13 01:53:17;;;;;;;;;;;;;;;49.38;15.30;100823.59;5096702;27;19937;-60
2022/09/13 01:55:57;;;;;;;;;;;;;;;49.96;14.89;100826.38;5118609;27;19930;-60
2022/09/13 01:58:27;;;;;;;;;;;;;;;49.60;15.27;100835.03;5100770;27;19969;-61
2022/09/13 02:01:00;;;;;;;;;;;;;;;50.18;14.09;100846.44;5111041;27;19920;-60
2022/09/13 02:03:35;;;;;;;;;;;;;;;49.31;14.69;100854.63;5106898;28;19916;-61
2022/09/13 02:06:05;;;;;;;;;;;;;;;47.95;16.60;100862.50;5109128;28;19951;-61
2022/09/13 02:08:41;;;;;;;;;;;;;;;46.66;17.50;100864.81;5091642;28;20280;-61
2022/09/13 02:11:16;;;;;;;;;;;;;;;48.50;15.76;100866.69;5109609;28;19924;-61
2022/09/13 02:13:57;;;;;;;;;;;;;;;45.17;24.80;100872.97;5105440;28;19915;-62
2022/09/13 02:16:28;;;;;;;;;;;;;;;43.76;27.65;100873.25;5109372;28;19924;-61
2022/09/13 02:18:57;;;;;;;;;;;;;;;43.69;26.73;100869.50;5100437;28;19946;-61
2022/09/13 02:21:29;;;;;;;;;;;;;;;43.93;27.08;100866.56;5099664;28;19923;-61
2022/09/13 02:24:16;;;;;;;;;;;;;;;45.12;37.37;100864.28;5106193;28;19920;-61
2022/09/13 02:26:45;;;;;;;;;;;;;;;45.90;62.90;100868.09;5107751;28;19973;-59
2022/09/13 02:29:15;;;;;;;;;;;;;;;48.23;28.84;100871.16;5105134;28;19927;-58
2022/09/13 02:31:44;;;;;;;;;;;;;;;46.42;30.19;100878.75;5107632;28;19955;-58
2022/09/13 02:34:17;;;;;;;;;;;;;;;46.16;29.95;100876.72;5103080;28;19922;-60
2022/09/13 02:36:44;;;;;;;;;;;;;;;46.62;29.35;100872.88;5101660;28;19955;-60
2022/09/13 02:39:17;;;;;;;;;;;;;;;46.69;30.34;100875.31;5110339;28;20450;-61
2022/09/13 02:41:44;;;;;;;;;;;;;;;46.27;30.48;100871.03;5105188;28;19928;-58
2022/09/13 02:44:42;;;;;;;;;;;;;;;46.81;29.64;100879.84;5104782;28;19967;-59
2022/09/13 02:47:28;;;;;;;;;;;;;;;46.75;29.29;100878.22;5047640;28;19927;-58
2022/09/13 02:50:05;;;;;;;;;;;;;;;45.45;29.82;100886.91;5106644;28;19923;-60
2022/09/13 02:52:32;;;;;;;;;;;;;;;45.82;28.59;100883.41;5108951;28;20278;-61
2022/09/13 02:55:17;;;;;;;;;;;;;;;45.69;29.48;100890.34;5110375;28;19927;-60
2022/09/13 02:57:46;;;;;;;;;;;;;;;45.38;28.40;100893.06;5088494;28;20135;-59
2022/09/13 03:00:13;;;;;;;;;;;;;;;45.83;28.34;100885.78;5103935;28;20302;-58
2022/09/13 03:02:40;;;;;;;;;;;;;;;46.33;27.90;100889.16;5087661;28;20300;-60
2022/09/13 03:05:07;;;;;;;;;;;;;;;46.88;28.22;100896.63;5110774;28;19956;-59
2022/09/13 03:07:33;;;;;;;;;;;;;;;47.36;24.63;100897.91;5104870;28;19920;-59
2022/09/13 03:10:07;;;;;;;;;;;;;;;48.19;23.55;100906.00;5104403;28;19920;-62
2022/09/13 03:12:51;;;;;;;;;;;;;;;48.37;20.79;100904.69;5105016;28;20042;-61
2022/09/13 03:15:36;;;;;;;;;;;;;;;48.44;17.59;100907.03;5111693;28;19920;-60
2022/09/13 03:18:20;;;;;;;;;;;;;;;49.07;18.57;100905.66;5105279;28;19927;-63
2022/09/13 03:20:58;;;;;;;;;;;;;;;49.27;18.38;100906.09;5111253;28;20018;-59
2022/09/13 03:23:43;;;;;;;;;;;;;;;49.54;15.82;100903.63;5111472;28;19923;-60
2022/09/13 03:26:34;;;;;;;;;;;;;;;49.38;15.62;100899.53;5105943;28;19920;-60
2022/09/13 03:29:18;;;;;;;;;;;;;;;49.59;16.28;100914.38;5106467;28;20337;-62
2022/09/13 03:32:20;;;;;;;;;;;;;;;49.81;16.62;100899.81;5109509;28;19923;-62
2022/09/13 03:34:46;;;;;;;;;;;;;;;49.18;16.01;100914.25;5028663;28;19995;-63
2022/09/13 03:37:12;;;;;;;;;;;;;;;49.39;16.11;100912.66;5088298;28;19919;-62
2022/09/13 03:39:41;;;;;;;;;;;;;;;49.31;16.22;100911.63;5110761;28;19924;-62
2022/09/13 03:42:14;;;;;;;;;;;;;;;47.57;17.54;100924.44;5103174;28;19919;-60
2022/09/13 03:44:44;;;;;;;;;;;;;;;48.24;17.48;100919.63;5125690;27;19920;-60
2022/09/13 03:47:13;;;;;;;;;;;;;;;49.11;17.28;100927.16;5127438;27;20015;-60
2022/09/13 03:49:40;;;;;;;;;;;;;;;49.40;17.77;100927.88;5105353;28;20353;-63
2022/09/13 03:52:06;;;;;;;;;;;;;;;48.59;17.82;100932.75;5114740;28;19952;-61
2022/09/13 03:54:35;;;;;;;;;;;;;;;48.39;18.09;100931.69;5112146;28;19926;-61
2022/09/13 03:57:22;;;;;;;;;;;;;;;48.31;17.56;100941.41;5108442;28;20419;-63
2022/09/13 03:59:52;;;;;;;;;;;;;;;48.25;19.27;100943.50;5113324;28;19920;-61
2022/09/13 04:02:25;;;;;;;;;;;;;;;48.25;17.88;100943.50;5078240;28;19928;-62
2022/09/13 04:04:51;;;;;;;;;;;;;;;48.82;17.27;100947.94;5097520;27;19935;-64
2022/09/13 04:07:19;;;;;;;;;;;;;;;48.93;17.43;100933.50;5102898;27;20018;-62
2022/09/13 04:09:45;;;;;;;;;;;;;;;47.94;18.25;100933.75;5105803;28;19935;-63
2022/09/13 04:12:13;;;;;;;;;;;;;;;47.48;18.03;100928.31;5104919;28;19955;-63
2022/09/13 04:14:39;;;;;;;;;;;;;;;47.69;18.46;100935.50;5106447;28;19933;-64
2022/09/13 04:17:06;;;;;;;;;;;;;;;48.71;17.67;100940.09;5103099;28;19927;-62
2022/09/13 04:19:32;;;;;;;;;;;;;;;47.27;18.03;100939.25;5090657;28;19970;-63
2022/09/13 04:21:58;;;;;;;;;;;;;;;47.41;18.19;100946.91;5105001;28;19920;-65
2022/09/13 04:24:26;;;;;;;;;;;;;;;47.70;17.45;100947.81;5107132;28;19924;-65
2022/09/13 04:26:53;;;;;;;;;;;;;;;47.15;18.19;100938.38;5097266;28;20302;-66
2022/09/13 04:29:23;;;;;;;;;;;;;;;47.35;17.66;100933.78;5109823;28;19927;-64
2022/09/13 04:31:52;;;;;;;;;;;;;;;47.20;18.15;100940.50;5099302;28;20382;-64
2022/09/13 04:34:21;;;;;;;;;;;;;;;48.57;16.87;100936.16;5106064;28;20350;-66
2022/09/13 04:36:48;;;;;;;;;;;;;;;48.76;16.15;100936.41;5104086;28;19927;-65
2022/09/13 04:39:14;;;;;;;;;;;;;;;48.23;16.53;100940.34;5104233;28;19926;-67
2022/09/13 04:41:42;;;;;;;;;;;;;;;48.46;16.81;100941.13;5109060;28;20014;-64
2022/09/13 04:44:08;;;;;;;;;;;;;;;48.95;16.19;100936.66;5108863;28;20289;-66
2022/09/13 04:46:34;;;;;;;;;;;;;;;49.21;16.23;100930.56;5102577;28;19931;-65
2022/09/13 04:49:01;;;;;;;;;;;;;;;49.34;16.03;100927.88;5092566;28;20448;-64
2022/09/13 04:51:27;;;;;;;;;;;;;;;48.77;15.94;100926.44;5105610;28;20385;-66
2022/09/13 04:53:54;;;;;;;;;;;;;;;48.34;16.07;100928.84;5110711;28;19916;-66
2022/09/13 04:56:22;;;;;;;;;;;;;;;48.55;16.32;100930.13;5110632;28;19969;-66
2022/09/13 04:58:49;;;;;;;;;;;;;;;48.09;16.82;100919.88;5099833;28;19931;-63
2022/09/13 05:01:16;;;;;;;;;;;;;;;48.97;16.69;100928.25;5106033;28;19927;-64
2022/09/13 05:03:42;;;;;;;;;;;;;;;49.16;16.23;100920.56;5113658;28;19916;-65
2022/09/13 05:06:10;;;;;;;;;;;;;;;49.11;15.82;100927.16;5113423;28;19920;-66
2022/09/13 05:08:36;;;;;;;;;;;;;;;48.96;16.37;100921.69;5099163;28;19916;-66
2022/09/13 05:11:03;;;;;;;;;;;;;;;49.03;16.11;100920.38;5127652;27;19926;-66
2022/09/13 05:13:29;;;;;;;;;;;;;;;49.27;15.26;100919.75;5099862;28;20007;-66
2022/09/13 05:16:00;;;;;;;;;;;;;;;48.26;16.30;100922.00;5105770;28;20446;-65
2022/09/13 05:18:29;;;;;;;;;;;;;;;48.68;15.79;100924.63;5103182;28;20014;-66
2022/09/13 05:20:56;;;;;;;;;;;;;;;48.49;17.02;100922.78;5105702;28;20016;-66
2022/09/13 05:23:23;;;;;;;;;;;;;;;49.00;16.50;100918.53;5104268;27;20369;-66
2022/09/13 05:26:07;;;;;;;;;;;;;;;48.63;16.79;100922.53;5114509;27;19924;-66
2022/09/13 05:28:35;;;;;;;;;;;;;;;48.56;16.26;100916.47;5099243;28;20370;-67
2022/09/13 05:31:06;;;;;;;;;;;;;;;48.92;16.20;100911.72;5127624;27;20453;-67
2022/09/13 05:33:34;;;;;;;;;;;;;;;48.80;16.49;100913.06;5099390;28;19916;-65
2022/09/13 05:36:00;;;;;;;;;;;;;;;49.20;15.95;100906.66;5113062;27;19922;-65
2022/09/13 05:38:26;;;;;;;;;;;;;;;49.05;15.69;100925.63;5104081;28;20302;-66
2022/09/13 05:40:57;;;;;;;;;;;;;;;49.02;16.31;100924.59;5110863;28;19961;-66
2022/09/13 05:43:24;;;;;;;;;;;;;;;49.39;15.85;100917.63;5104018;27;19919;-67
2022/09/13 05:45:50;;;;;;;;;;;;;;;49.48;15.52;100908.66;5118824;27;20458;-67
2022/09/13 05:48:16;;;;;;;;;;;;;;;49.57;15.40;100914.13;5101637;28;20385;-67
2022/09/13 05:50:42;;;;;;;;;;;;;;;49.42;16.23;100916.56;5119369;27;19959;-66
2022/09/13 05:53:09;;;;;;;;;;;;;;;49.81;15.20;100914.25;5104121;28;19919;-68
2022/09/13 05:55:35;;;;;;;;;;;;;;;49.77;15.79;100908.00;5112456;28;19927;-66
2022/09/13 05:58:02;;;;;;;;;;;;;;;49.87;16.59;100917.88;5104974;28;19920;-66
2022/09/13 06:00:28;;;;;;;;;;;;;;;49.66;16.95;100916.72;5108016;28;19922;-66
2022/09/13 06:02:55;;;;;;;;;;;;;;;49.84;16.51;100916.06;5096893;28;19920;-66
2022/09/13 06:05:21;;;;;;;;;;;;;;;49.70;16.32;100920.09;5112594;28;20014;-66
2022/09/13 06:07:48;;;;;;;;;;;;;;;49.91;15.52;100918.38;5105769;28;19927;-66
2022/09/13 06:10:14;;;;;;;;;;;;;;;49.82;16.35;100921.59;5117711;27;20017;-66
2022/09/13 06:12:40;;;;;;;;;;;;;;;49.40;16.26;100922.88;5084271;28;19927;-67
2022/09/13 06:15:08;;;;;;;;;;;;;;;49.51;16.24;100930.69;5127510;27;20425;-65
2022/09/13 06:17:34;;;;;;;;;;;;;;;49.52;16.44;100921.50;5106609;27;19975;-66
2022/09/13 06:20:00;;;;;;;;;;;;;;;49.81;16.40;100920.03;5113550;27;19920;-65
2022/09/13 06:22:31;;;;;;;;;;;;;;;49.66;15.84;100913.03;5121504;27;20441;-65
2022/09/13 06:24:58;;;;;;;;;;;;;;;49.71;15.47;100915.88;5082606;27;19969;-66
2022/09/13 06:27:24;;;;;;;;;;;;;;;49.74;15.61;100922.72;5123970;27;19916;-67
2022/09/13 06:29:51;;;;;;;;;;;;;;;49.83;14.99;100919.50;5111447;28;19942;-68
2022/09/13 06:32:17;;;;;;;;;;;;;;;49.73;15.00;100919.03;5104797;28;19920;-65
2022/09/13 06:34:44;;;;;;;;;;;;;;;49.68;15.12;100916.97;5100497;28;19920;-65
2022/09/13 06:37:10;;;;;;;;;;;;;;;49.20;15.39;100912.44;5082022;28;19923;-67
2022/09/13 06:39:36;;;;;;;;;;;;;;;49.89;15.47;100911.56;5120407;28;19959;-65
2022/09/13 06:42:03;;;;;;;;;;;;;;;49.90;15.18;100916.81;5109487;28;20010;-66
2022/09/13 06:44:38;;;;;;;;;;;;;;;49.66;15.30;100910.16;5098243;28;19924;-67
2022/09/13 06:47:04;;;;;;;;;;;;;;;49.75;14.82;100913.53;5127157;28;19926;-65
2022/09/13 06:49:31;;;;;;;;;;;;;;;49.94;14.27;100919.44;5100766;28;19923;-66
2022/09/13 06:51:57;;;;;;;;;;;;;;;50.20;15.10;100921.88;5106404;28;19920;-66
2022/09/13 06:54:23;;;;;;;;;;;;;;;50.41;15.06;100920.13;5100236;28;19916;-67
2022/09/13 06:56:49;;;;;;;;;;;;;;;50.17;14.45;100914.28;5127131;28;20373;-66
2022/09/13 06:59:16;;;;;;;;;;;;;;;50.45;14.51;100920.63;5101191;28;20006;-66
2022/09/13 07:01:42;;;;;;;;;;;;;;;50.39;14.86;100916.22;5118685;28;19927;-66
2022/09/13 07:04:10;;;;;;;;;;;;;;;50.35;15.12;100913.63;5113433;28;19955;-66
2022/09/13 07:06:38;;;;;;;;;;;;;;;50.35;15.53;100915.72;5112803;28;19919;-66
2022/09/13 07:09:06;;;;;;;;;;;;;;;50.29;15.04;100912.09;5096651;28;19923;-65
2022/09/13 07:11:34;;;;;;;;;;;;;;;50.48;15.25;100919.56;5107220;28;20002;-66
2022/09/13 07:14:00;;;;;;;;;;;;;;;50.45;17.45;100917.72;5113488;28;19915;-66
2022/09/13 07:16:28;;;;;;;;;;;;;;;50.25;16.68;100918.13;5106520;28;19973;-66
2022/09/13 07:18:59;;;;;;;;;;;;;;;50.19;15.43;100917.41;5130830;27;20061;-67
2022/09/13 07:21:26;;;;;;;;;;;;;;;50.34;16.78;100919.94;5107575;27;20277;-68
2022/09/13 07:23:54;;;;;;;;;;;;;;;50.05;15.98;100915.69;5101258;28;20014;-66
2022/09/13 07:26:20;;;;;;;;;;;;;;;49.52;16.42;100920.69;5123057;27;19919;-67
2022/09/13 07:28:48;;;;;;;;;;;;;;;49.32;16.84;100916.06;5104082;27;19916;-66
2022/09/13 07:31:16;;;;;;;;;;;;;;;49.68;16.30;100905.41;5098999;28;19927;-66
2022/09/13 07:33:43;;;;;;;;;;;;;;;49.93;17.25;100903.41;5109648;28;19920;-66
2022/09/13 07:36:10;;;;;;;;;;;;;;;49.97;16.82;100903.91;5116621;28;19920;-67
2022/09/13 07:38:39;;;;;;;;;;;;;;;50.03;15.44;100903.88;5101873;28;19916;-66
2022/09/13 07:41:09;;;;;;;;;;;;;;;49.62;16.10;100901.75;5115583;28;20416;-66
2022/09/13 07:43:35;;;;;;;;;;;;;;;49.51;15.49;100910.47;5112121;28;20015;-66
2022/09/13 07:46:06;;;;;;;;;;;;;;;49.64;15.19;100904.88;5107328;28;19931;-65
2022/09/13 07:48:34;;;;;;;;;;;;;;;49.89;16.02;100906.56;5101961;28;20010;-65
2022/09/13 07:51:14;;;;;;;;;;;;;;;49.89;15.78;100909.47;5106341;28;19916;-65
2022/09/13 07:53:41;;;;;;;;;;;;;;;50.00;15.63;100902.06;5106163;28;19920;-65
2022/09/13 07:56:18;;;;;;;;;;;;;;;49.88;16.06;100904.22;5105327;28;20291;-64
2022/09/13 07:58:47;;;;;;;;;;;;;;;49.79;16.33;100901.66;5106653;28;19927;-65
2022/09/13 08:01:22;;;;;;;;;;;;;;;49.72;16.39;100897.22;5104951;28;19922;-65
2022/09/13 08:03:53;;;;;;;;;;;;;;;49.84;16.08;100895.84;5105052;28;19920;-66
2022/09/13 08:06:20;;;;;;;;;;;;;;;49.89;16.13;100897.91;5090453;28;19927;-66
2022/09/13 08:08:46;;;;;;;;;;;;;;;50.05;15.68;100895.44;5116638;28;19920;-66
2022/09/13 08:11:22;;;;;;;;;;;;;;;49.84;16.45;100898.72;5116416;28;19920;-66
2022/09/13 08:13:49;;;;;;;;;;;;;;;49.64;17.30;100892.53;5116472;28;19940;-65
2022/09/13 08:16:16;;;;;;;;;;;;;;;49.54;17.77;100889.16;5116431;28;20306;-66
2022/09/13 08:18:44;;;;;;;;;;;;;;;49.81;17.57;100896.91;5098108;28;19919;-65
2022/09/13 08:21:10;;;;;;;;;;;;;;;50.06;17.22;100886.22;5116313;28;19973;-66
2022/09/13 08:23:37;;;;;;;;;;;;;;;50.03;17.47;100892.31;5116419;28;19916;-65
2022/09/13 08:26:05;;;;;;;;;;;;;;;49.47;18.69;100898.41;5116327;28;19920;-66
2022/09/13 08:28:31;;;;;;;;;;;;;;;49.52;18.69;100894.69;5115325;28;19915;-65
2022/09/13 08:31:07;;;;;;;;;;;;;;;49.30;18.91;100893.50;5116071;28;20027;-64
2022/09/13 08:33:33;;;;;;;;;;;;;;;49.49;19.05;100884.22;5116044;28;19916;-65
2022/09/13 08:36:00;;;;;;;;;;;;;;;49.74;18.85;100885.16;5116099;28;20293;-66
2022/09/13 08:38:27;;;;;;;;;;;;;;;49.55;18.16;100884.97;5115837;28;19923;-66
2022/09/13 08:40:55;;;;;;;;;;;;;;;49.24;19.29;100883.28;5115841;28;19923;-66
2022/09/13 08:43:21;;;;;;;;;;;;;;;49.27;19.48;100876.44;5115864;28;20278;-64
2022/09/13 08:45:54;;;;;;;;;;;;;;;49.16;19.17;100882.25;5115748;28;19915;-65
2022/09/13 08:48:27;;;;;;;;;;;;;;;49.14;19.01;100874.13;5115887;28;19962;-65
2022/09/13 08:50:58;;;;;;;;;;;;;;;49.22;18.78;100875.16;5115828;28;19920;-66
2022/09/13 08:53:30;;;;;;;;;;;;;;;48.97;19.27;100870.53;5115874;28;20400;-66
2022/09/13 08:56:11;;;;;;;;;;;;;;;49.25;18.30;100865.41;5115644;28;20405;-65
2022/09/13 08:58:41;;;;;;;;;;;;;;;49.51;18.56;100862.13;5115651;28;19927;-66
2022/09/13 09:01:22;;;;;;;;;;;;;;;49.64;18.35;100858.66;5115740;28;20392;-67
2022/09/13 09:04:03;;;;;;;;;;;;;;;49.45;18.33;100867.19;5115599;28;20442;-67
2022/09/13 09:06:30;;;;;;;;;;;;;;;49.24;18.10;100860.19;5115422;28;19919;-66
2022/09/13 09:09:02;;;;;;;;;;;;;;;49.36;18.25;100861.69;5115311;28;19919;-65
2022/09/13 09:11:36;;;;;;;;;;;;;;;49.48;17.70;100869.00;5115276;28;20403;-65
2022/09/13 09:14:07;;;;;;;;;;;;;;;49.54;18.24;100861.06;5115411;28;19920;-66
2022/09/13 09:16:40;;;;;;;;;;;;;;;49.61;17.99;100854.72;5096907;28;20416;-66
2022/09/13 09:19:14;;;;;;;;;;;;;;;49.84;17.85;100852.47;5115145;28;19931;-66
2022/09/13 09:21:42;;;;;;;;;;;;;;;49.81;18.06;100855.66;5115239;28;19919;-67
2022/09/13 09:24:14;;;;;;;;;;;;;;;49.77;17.95;100843.63;5115043;28;20000;-65
2022/09/13 09:26:40;;;;;;;;;;;;;;;49.60;18.09;100852.38;5114638;28;19927;-65
2022/09/13 09:29:17;;;;;;;;;;;;;;;49.37;17.71;100850.94;5114774;28;19962;-65
2022/09/13 09:31:58;;;;;;;;;;;;;;;49.07;18.31;100856.59;5114109;28;19926;-65
2022/09/13 09:34:24;;;;;;;;;;;;;;;49.30;18.09;100870.41;5115215;28;19920;-65
2022/09/13 09:36:59;;;;;;;;;;;;;;;49.38;18.04;100855.38;5114827;28;19915;-65
2022/09/13 09:39:31;;;;;;;;;;;;;;;49.58;17.83;100855.81;5114881;28;19924;-65
2022/09/13 09:41:58;;;;;;;;;;;;;;;49.59;18.23;100853.69;5114781;28;20395;-66
2022/09/13 09:44:32;;;;;;;;;;;;;;;49.75;18.17;100846.25;5114923;28;19992;-65
2022/09/13 09:47:31;;;;;;;;;;;;;;;49.62;18.17;100846.84;5114901;28;19919;-66
2022/09/13 09:50:11;;;;;;;;;;;;;;;49.50;17.67;100845.34;5070384;28;19942;-65
2022/09/13 09:52:50;;;;;;;;;;;;;;;49.26;17.69;100845.97;5114690;28;20298;-66
2022/09/13 09:55:27;;;;;;;;;;;;;;;49.39;17.43;100848.31;5114589;28;19927;-66
2022/09/13 09:57:55;;;;;;;;;;;;;;;49.55;17.20;100841.63;5114546;28;19927;-66
2022/09/13 10:00:22;;;;;;;;;;;;;;;49.54;17.53;100842.94;5114530;28;19930;-65
2022/09/13 10:02:51;;;;;;;;;;;;;;;49.29;18.22;100839.94;5114429;28;19924;-65
2022/09/13 10:05:19;;;;;;;;;;;;;;;49.42;17.29;100835.69;5114384;28;19916;-65
2022/09/13 10:07:53;;;;;;;;;;;;;;;49.50;17.29;100837.47;5096145;28;20490;-65
2022/09/13 10:10:23;;;;;;;;;;;;;;;49.22;18.03;100837.63;5114218;28;19919;-65
2022/09/13 10:12:51;;;;;;;;;;;;;;;49.40;17.32;100832.56;5093345;28;19934;-66
2022/09/13 10:15:19;;;;;;;;;;;;;;;49.30;17.91;100827.06;5114415;28;19920;-65
2022/09/13 10:18:05;;;;;;;;;;;;;;;49.40;17.64;100826.78;5114180;28;19928;-66
2022/09/13 10:20:34;;;;;;;;;;;;;;;49.55;17.20;100821.41;5113531;28;20424;-67
2022/09/13 10:23:10;;;;;;;;;;;;;;;49.66;17.83;100820.56;5114101;28;19920;-65
2022/09/13 10:25:36;;;;;;;;;;;;;;;49.67;17.56;100822.91;5114189;28;19928;-65
2022/09/13 10:28:04;;;;;;;;;;;;;;;49.66;16.72;100815.56;5114254;28;19916;-65
2022/09/13 10:30:30;;;;;;;;;;;;;;;49.80;17.52;100813.63;5114191;28;19920;-64
2022/09/13 10:32:56;;;;;;;;;;;;;;;49.72;16.71;100822.09;5114411;28;19916;-65
2022/09/13 10:35:23;;;;;;;;;;;;;;;49.81;17.02;100821.75;5114217;28;19958;-66
2022/09/13 10:37:50;;;;;;;;;;;;;;;49.79;17.28;100818.63;5114064;28;19938;-65
2022/09/13 10:40:28;;;;;;;;;;;;;;;49.72;17.60;100824.97;5113946;28;19919;-65
2022/09/13 10:42:56;;;;;;;;;;;;;;;49.66;17.73;100820.56;5114054;28;19916;-66
2022/09/13 10:45:25;;;;;;;;;;;;;;;49.72;17.60;100813.41;5114094;28;19946;-66
2022/09/13 10:47:53;;;;;;;;;;;;;;;49.29;17.55;100810.28;5114124;28;20303;-65
2022/09/13 10:50:21;;;;;;;;;;;;;;;48.98;18.44;100809.38;5113872;28;19915;-66
2022/09/13 10:52:47;;;;;;;;;;;;;;;49.15;18.09;100805.59;5117082;28;19939;-66
2022/09/13 10:55:23;;;;;;;;;;;;;;;49.19;18.16;100809.78;5118144;28;20305;-67
2022/09/13 10:57:53;;;;;;;;;;;;;;;49.38;18.19;100800.50;5118035;28;19919;-66
2022/09/13 11:00:29;;;;;;;;;;;;;;;49.42;17.66;100809.69;5118063;28;19924;-66
2022/09/13 11:03:19;;;;;;;;;;;;;;;49.41;17.80;100808.13;5117843;28;20093;-65
2022/09/13 11:05:54;;;;;;;;;;;;;;;49.31;18.06;100805.53;5117047;28;20056;-65
2022/09/13 11:08:27;;;;;;;;;;;;;;;49.48;17.54;100801.75;5117926;28;19919;-65
2022/09/13 11:11:00;;;;;;;;;;;;;;;49.58;17.47;100797.22;5117831;28;20061;-65
2022/09/13 11:13:32;;;;;;;;;;;;;;;49.41;17.22;100794.47;5118035;28;19923;-66
2022/09/13 11:16:07;;;;;;;;;;;;;;;49.46;17.35;100798.63;5117565;28;19969;-66
2022/09/13 11:18:37;;;;;;;;;;;;;;;49.41;17.75;100799.47;5117678;28;19920;-65
2022/09/13 11:21:08;;;;;;;;;;;;;;;49.36;17.12;100797.38;5117738;28;19916;-66
2022/09/13 11:23:35;;;;;;;;;;;;;;;49.54;17.62;100796.72;5117721;28;19922;-65
2022/09/13 11:26:10;;;;;;;;;;;;;;;49.58;16.95;100791.47;5117548;28;19927;-66
2022/09/13 11:28:36;;;;;;;;;;;;;;;49.65;17.00;100798.78;5117428;28;19923;-66
2022/09/13 11:31:10;;;;;;;;;;;;;;;49.68;17.71;100789.81;5117369;28;20012;-66
2022/09/13 11:33:36;;;;;;;;;;;;;;;49.64;17.61;100800.06;5117495;28;19915;-65
2022/09/13 11:36:15;;;;;;;;;;;;;;;49.64;17.89;100795.06;5117426;28;19919;-65
2022/09/13 11:38:50;;;;;;;;;;;;;;;49.57;17.84;100801.44;5117444;28;19924;-64
2022/09/13 11:41:37;;;;;;;;;;;;;;;49.64;17.46;100800.84;5117243;28;19920;-66
2022/09/13 11:44:18;;;;;;;;;;;;;;;49.80;17.64;100804.97;5098984;28;19916;-66
2022/09/13 11:46:55;;;;;;;;;;;;;;;49.73;17.44;100803.41;5117204;28;20292;-64
2022/09/13 11:49:50;;;;;;;;;;;;;;;49.68;17.69;100807.16;5117110;28;19927;-67
2022/09/13 11:52:17;;;;;;;;;;;;;;;49.86;18.01;100797.81;5117171;28;19915;-65
2022/09/13 11:54:55;;;;;;;;;;;;;;;49.84;17.22;100809.13;5117011;28;19922;-66
2022/09/13 11:57:34;;;;;;;;;;;;;;;50.19;17.13;100807.50;5116885;28;19984;-66
2022/09/13 12:00:03;;;;;;;;;;;;;;;50.03;17.13;100805.56;5116847;28;19927;-65
2022/09/13 12:02:42;;;;;;;;;;;;;;;49.89;17.82;100816.94;5116623;28;19950;-65
2022/09/13 12:05:14;;;;;;;;;;;;;;;49.82;17.69;100811.78;5115987;28;19943;-64
2022/09/13 12:07:49;;;;;;;;;;;;;;;49.93;17.63;100816.69;5116648;28;19920;-65
2022/09/13 12:10:20;;;;;;;;;;;;;;;50.10;17.19;100813.66;5116630;28;19924;-65
2022/09/13 12:12:49;;;;;;;;;;;;;;;50.06;17.04;100813.94;5116501;28;19924;-66
2022/09/13 12:15:18;;;;;;;;;;;;;;;49.98;17.88;100818.72;5116419;28;19915;-65
2022/09/13 12:17:57;;;;;;;;;;;;;;;49.72;17.25;100819.19;5116570;28;20373;-65
2022/09/13 12:20:30;;;;;;;;;;;;;;;49.73;17.46;100817.88;5116284;28;19943;-62
2022/09/13 12:22:59;;;;;;;;;;;;;;;49.70;17.28;100821.84;5116416;28;19924;-64
2022/09/13 12:25:30;;;;;;;;;;;;;;;49.37;17.36;100822.03;5116231;28;19916;-63
2022/09/13 12:28:01;;;;;;;;;;;;;;;49.62;17.01;100817.94;5116315;28;19931;-64
2022/09/13 12:30:32;;;;;;;;;;;;;;;49.97;16.67;100811.38;5112790;28;19928;-65
2022/09/13 12:32:59;;;;;;;;;;;;;;;49.81;17.48;100812.31;5116139;28;19989;-65
2022/09/13 12:35:31;;;;;;;;;;;;;;;49.50;17.33;100811.47;5116238;28;19916;-65
2022/09/13 12:38:16;;;;;;;;;;;;;;;49.33;17.63;100810.00;5115971;28;20392;-65
2022/09/13 12:40:46;;;;;;;;;;;;;;;49.60;16.95;100814.81;5116080;28;20369;-66
2022/09/13 12:43:28;;;;;;;;;;;;;;;49.74;17.14;100810.78;5116056;28;20361;-65
2022/09/13 12:45:57;;;;;;;;;;;;;;;49.69;17.34;100823.16;5115471;28;20023;-65
2022/09/13 12:48:35;;;;;;;;;;;;;;;49.52;17.17;100823.25;5115839;28;19923;-65
2022/09/13 12:51:01;;;;;;;;;;;;;;;49.50;17.00;100813.56;5115704;28;20374;-64
2022/09/13 12:53:34;;;;;;;;;;;;;;;49.52;17.34;100816.69;5115860;28;19943;-64
2022/09/13 12:56:01;;;;;;;;;;;;;;;49.41;16.89;100819.69;5105615;28;19915;-64
2022/09/13 12:58:30;;;;;;;;;;;;;;;49.54;17.06;100825.59;5105200;28;20431;-64